createdAt,value
2019-05-02T00:01:20.914Z,18.70
2019-05-02T00:03:47.302Z,19.47
2019-05-02T00:06:13.685Z,18.27
2019-05-02T00:08:40.624Z,18.33
2019-05-02T00:11:08.530Z,19.87
2019-05-02T00:13:34.890Z,18.80
2019-05-02T00:16:01.378Z,18.73
2019-05-02T00:18:31.958Z,17.40
2019-05-02T00:20:57.020Z,18.13
2019-05-02T00:23:27.953Z,17.23
2019-05-02T00:25:54.390Z,18.00
2019-05-02T00:28:20.927Z,18.13
2019-05-02T00:30:47.939Z,18.53
2019-05-02T00:33:14.505Z,19.50
2019-05-02T00:35:46.051Z,19.43
2019-05-02T00:38:09.686Z,17.93
2019-05-02T00:40:35.951Z,18.83
2019-05-02T00:43:02.634Z,19.20
2019-05-02T00:45:29.395Z,19.07
2019-05-02T00:47:57.603Z,18.83
2019-05-02T00:50:24.665Z,17.80
2019-05-02T00:52:51.362Z,19.87
2019-05-02T00:55:17.759Z,18.03
2019-05-02T00:57:44.059Z,19.83
2019-05-02T01:00:13.279Z,18.83
2019-05-02T01:02:44.879Z,18.87
2019-05-02T01:05:12.677Z,17.30
2019-05-02T01:07:39.163Z,17.90
2019-05-02T01:10:06.187Z,16.30
2019-05-02T01:12:32.688Z,18.00
2019-05-02T01:15:03.444Z,16.27
2019-05-02T01:17:31.001Z,16.70
2019-05-02T01:19:55.759Z,17.63
2019-05-02T01:22:22.047Z,17.70
2019-05-02T01:24:48.449Z,18.63
2019-05-02T01:27:17.103Z,19.07
2019-05-02T01:30:01.460Z,18.80
2019-05-02T01:32:30.126Z,15.83
2019-05-02T01:34:57.691Z,15.30
2019-05-02T01:37:32.143Z,17.17
2019-05-02T01:39:58.759Z,17.77
2019-05-02T01:42:25.027Z,17.57
2019-05-02T01:44:52.414Z,18.87
2019-05-02T01:47:18.699Z,17.53
2019-05-02T01:49:44.990Z,17.50
2019-05-02T01:52:11.254Z,16.83
2019-05-02T01:54:40.795Z,17.37
2019-05-02T01:57:08.745Z,19.00
2019-05-02T01:59:35.124Z,16.70
2019-05-02T02:02:01.630Z,15.37
2019-05-02T02:04:29.234Z,15.40
2019-05-02T02:06:55.863Z,13.87
2019-05-02T02:09:22.171Z,12.40
2019-05-02T02:11:48.546Z,11.07
2019-05-02T02:14:18.388Z,11.03
2019-05-02T02:16:43.454Z,9.53
2019-05-02T02:19:17.939Z,10.37
2019-05-02T02:21:52.331Z,10.47
2019-05-02T02:24:25.107Z,10.57
2019-05-02T02:26:49.933Z,10.67
2019-05-02T02:29:16.522Z,10.70
2019-05-02T02:31:46.846Z,11.73
2019-05-02T02:34:11.335Z,11.17
2019-05-02T02:36:38.090Z,13.57
2019-05-02T02:39:06.840Z,12.93
2019-05-02T02:41:34.946Z,12.80
2019-05-02T02:44:20.162Z,13.43
2019-05-02T02:46:48.264Z,13.83
2019-05-02T02:49:21.284Z,13.87
2019-05-02T02:51:43.430Z,15.70
2019-05-02T02:54:11.116Z,15.17
2019-05-02T02:56:40.759Z,14.20
2019-05-02T02:59:06.211Z,11.47
2019-05-02T03:01:32.611Z,11.33
2019-05-02T03:04:01.998Z,10.97
2019-05-02T03:06:27.800Z,9.87
2019-05-02T03:08:54.355Z,12.73
2019-05-02T03:11:25.031Z,11.83
2019-05-02T03:13:54.172Z,11.77
2019-05-02T03:16:23.321Z,11.87
2019-05-02T03:18:49.803Z,12.47
2019-05-02T03:21:20.423Z,13.23
2019-05-02T03:23:44.676Z,12.63
2019-05-02T03:26:14.783Z,13.13
2019-05-02T03:28:40.076Z,13.40
2019-05-02T03:31:21.068Z,12.80
2019-05-02T03:33:52.178Z,12.83
2019-05-02T03:36:03.561Z,13.43
2019-05-02T03:38:32.328Z,12.30
2019-05-02T03:40:59.023Z,12.20
2019-05-02T03:43:27.732Z,12.53
2019-05-02T03:45:54.391Z,12.97
2019-05-02T03:48:25.686Z,13.93
2019-05-02T03:50:49.856Z,13.87
2019-05-02T03:53:17.682Z,14.70
2019-05-02T03:55:45.404Z,15.90
2019-05-02T03:58:14.176Z,15.57
2019-05-02T04:00:40.535Z,15.23
2019-05-02T04:03:07.231Z,16.40
2019-05-02T04:05:39.662Z,17.03
2019-05-02T04:08:03.494Z,18.53
2019-05-02T04:10:52.930Z,16.93
2019-05-02T04:13:15.364Z,17.63
2019-05-02T04:15:44.186Z,18.50
2019-05-02T04:18:15.322Z,18.03
2019-05-02T04:20:43.695Z,19.13
2019-05-02T04:23:10.903Z,17.33
2019-05-02T04:25:37.832Z,16.70
2019-05-02T04:28:05.980Z,18.00
2019-05-02T04:30:33.442Z,17.00
2019-05-02T04:33:00.044Z,22.03
2019-05-02T04:35:28.720Z,21.50
2019-05-02T04:37:54.689Z,20.63
2019-05-02T04:40:21.080Z,23.53
2019-05-02T04:42:53.425Z,21.30
2019-05-02T04:45:26.375Z,23.00
2019-05-02T04:47:54.568Z,23.10
2019-05-02T04:50:17.823Z,24.70
2019-05-02T04:52:51.183Z,24.93
2019-05-02T04:55:19.899Z,23.27
2019-05-02T04:57:46.784Z,23.77
2019-05-02T05:00:11.623Z,22.63
2019-05-02T05:02:39.285Z,23.00
2019-05-02T05:05:05.374Z,22.43
2019-05-02T05:07:41.088Z,24.17
2019-05-02T05:10:03.123Z,22.73
2019-05-02T05:12:32.391Z,23.90
2019-05-02T05:14:57.834Z,25.00
2019-05-02T05:17:25.183Z,24.60
2019-05-02T05:19:52.583Z,23.43
2019-05-02T05:22:18.870Z,23.03
2019-05-02T05:25:02.302Z,23.70
2019-05-02T05:27:29.027Z,25.90
2019-05-02T05:30:02.261Z,23.83
2019-05-02T05:32:24.944Z,24.27
2019-05-02T05:34:51.710Z,24.97
2019-05-02T05:37:18.664Z,23.27
2019-05-02T05:39:50.895Z,23.63
2019-05-02T05:42:13.197Z,23.60
2019-05-02T05:44:39.908Z,23.93
2019-05-02T05:47:07.351Z,24.10
2019-05-02T05:49:33.854Z,24.63
2019-05-02T05:52:03.820Z,23.77
2019-05-02T05:54:33.144Z,24.60
2019-05-02T05:56:57.809Z,25.07
2019-05-02T05:59:28.284Z,24.77
2019-05-02T06:01:53.237Z,26.00
2019-05-02T06:04:23.652Z,25.67
2019-05-02T06:06:48.067Z,26.33
2019-05-02T06:09:14.901Z,23.53
2019-05-02T06:11:41.628Z,25.60
2019-05-02T06:14:07.926Z,28.40
2019-05-02T06:16:35.304Z,27.97
2019-05-02T06:19:03.283Z,26.77
2019-05-02T06:21:29.919Z,26.23
2019-05-02T06:23:56.510Z,25.60
2019-05-02T06:26:23.146Z,27.47
2019-05-02T06:28:49.448Z,28.17
2019-05-02T06:31:17.206Z,27.70
2019-05-02T06:33:43.823Z,26.93
2019-05-02T06:36:10.208Z,26.77
2019-05-02T06:38:36.898Z,27.67
2019-05-02T06:41:03.740Z,26.43
2019-05-02T06:43:29.999Z,28.97
2019-05-02T06:45:56.399Z,31.63
2019-05-02T06:48:22.965Z,29.33
2019-05-02T06:50:49.259Z,28.13
2019-05-02T06:53:16.011Z,29.90
2019-05-02T06:55:42.855Z,28.13
2019-05-02T06:58:09.224Z,27.90
2019-05-02T07:00:48.251Z,29.27
2019-05-02T07:03:05.083Z,29.07
2019-05-02T07:05:33.046Z,28.87
2019-05-02T07:07:59.669Z,31.60
2019-05-02T07:10:26.714Z,28.93
2019-05-02T07:13:09.807Z,29.13
2019-05-02T07:15:23.916Z,29.00
2019-05-02T07:17:50.810Z,28.90
2019-05-02T07:20:17.478Z,28.63
2019-05-02T07:22:45.745Z,27.90
2019-05-02T07:25:15.150Z,29.70
2019-05-02T07:27:41.451Z,27.93
2019-05-02T07:30:09.719Z,27.27
2019-05-02T07:32:36.456Z,26.30
2019-05-02T07:35:05.223Z,26.47
2019-05-02T07:37:31.991Z,26.70
2019-05-02T07:39:58.252Z,27.07
2019-05-02T07:42:24.639Z,26.80
2019-05-02T07:44:50.928Z,27.13
2019-05-02T07:47:17.619Z,26.70
2019-05-02T07:49:44.390Z,28.27
2019-05-02T07:52:10.887Z,25.23
2019-05-02T07:54:37.283Z,24.93
2019-05-02T07:57:03.883Z,26.93
2019-05-02T07:59:30.246Z,24.60
2019-05-02T08:01:56.547Z,25.17
2019-05-02T08:04:23.027Z,25.93
2019-05-02T08:06:49.702Z,24.77
2019-05-02T08:09:16.157Z,26.53
2019-05-02T08:11:42.899Z,24.23
2019-05-02T08:14:09.197Z,24.63
2019-05-02T08:16:35.823Z,24.67
2019-05-02T08:19:05.473Z,24.17
2019-05-02T08:21:32.495Z,25.37
2019-05-02T08:24:02.200Z,24.37
2019-05-02T08:26:29.387Z,24.60
2019-05-02T08:29:03.858Z,24.10
2019-05-02T08:31:30.420Z,26.00
2019-05-02T08:33:57.266Z,25.97
2019-05-02T08:36:23.532Z,25.73
2019-05-02T08:38:53.708Z,26.03
2019-05-02T08:41:20.055Z,26.53
2019-05-02T08:43:46.523Z,25.73
2019-05-02T08:46:14.433Z,26.87
2019-05-02T08:48:43.784Z,26.33
2019-05-02T08:51:10.656Z,26.80
2019-05-02T08:53:52.050Z,27.10
2019-05-02T08:56:21.283Z,28.23
2019-05-02T08:58:49.907Z,26.03
2019-05-02T09:01:15.474Z,26.03
2019-05-02T09:03:55.256Z,26.37
2019-05-02T09:06:32.709Z,24.73
2019-05-02T09:08:59.118Z,27.00
2019-05-02T09:11:25.392Z,26.77
2019-05-02T09:13:52.644Z,24.70
2019-05-02T09:16:28.538Z,26.23
2019-05-02T09:18:54.775Z,24.17
2019-05-02T09:21:22.042Z,26.70
2019-05-02T09:23:48.471Z,27.53
2019-05-02T09:26:14.938Z,23.67
2019-05-02T09:28:42.270Z,29.47
2019-05-02T09:31:09.016Z,28.03
2019-05-02T09:33:41.141Z,25.23
2019-05-02T09:36:04.882Z,24.10
2019-05-02T09:38:32.904Z,25.03
2019-05-02T09:41:13.830Z,23.90
2019-05-02T09:43:29.394Z,25.00
2019-05-02T09:45:57.379Z,25.33
2019-05-02T09:48:26.820Z,28.07
2019-05-02T09:50:52.841Z,25.93
2019-05-02T09:53:20.610Z,27.80
2019-05-02T09:55:50.267Z,26.87
2019-05-02T09:58:21.048Z,24.67
2019-05-02T10:01:02.022Z,24.53
2019-05-02T10:03:31.887Z,24.87
2019-05-02T10:05:58.534Z,26.43
2019-05-02T10:08:25.013Z,25.60
2019-05-02T10:10:52.233Z,26.90
2019-05-02T10:13:18.697Z,28.13
2019-05-02T10:15:45.891Z,26.67
2019-05-02T10:18:14.593Z,26.57
2019-05-02T10:20:41.951Z,26.60
2019-05-02T10:23:12.022Z,28.03
2019-05-02T10:25:38.835Z,26.70
2019-05-02T10:28:06.145Z,28.30
2019-05-02T10:30:36.004Z,29.10
2019-05-02T10:33:03.193Z,29.23
2019-05-02T10:35:38.876Z,30.37
2019-05-02T10:37:59.896Z,35.40
2019-05-02T10:40:26.306Z,31.53
2019-05-02T10:42:52.803Z,29.87
2019-05-02T10:45:19.590Z,30.07
2019-05-02T10:47:45.849Z,29.73
2019-05-02T10:50:27.201Z,31.03
2019-05-02T10:52:53.578Z,31.20
2019-05-02T10:55:22.268Z,30.97
2019-05-02T10:57:48.886Z,30.40
2019-05-02T11:00:18.050Z,29.90
2019-05-02T11:02:52.556Z,31.00
2019-05-02T11:05:24.705Z,29.23
2019-05-02T11:07:49.337Z,28.80
2019-05-02T11:10:16.287Z,30.57
2019-05-02T11:12:46.932Z,32.17
2019-05-02T11:15:26.731Z,30.00
2019-05-02T11:17:52.936Z,29.80
2019-05-02T11:20:19.476Z,29.83
2019-05-02T11:22:45.845Z,30.23
2019-05-02T11:25:12.476Z,30.87
2019-05-02T11:27:39.135Z,32.87
2019-05-02T11:30:07.283Z,34.93
2019-05-02T11:32:33.819Z,31.53
2019-05-02T11:35:00.115Z,29.87
2019-05-02T11:37:26.638Z,30.30
2019-05-02T11:39:59.358Z,29.13
2019-05-02T11:42:23.312Z,28.97
2019-05-02T11:44:52.276Z,28.03
2019-05-02T11:47:24.935Z,29.07
2019-05-02T11:49:51.244Z,27.87
2019-05-02T11:52:15.162Z,27.50
2019-05-02T11:54:44.681Z,25.27
2019-05-02T11:57:11.502Z,26.80
2019-05-02T11:59:37.827Z,24.97
2019-05-02T12:02:19.068Z,26.50
2019-05-02T12:04:47.400Z,27.27
2019-05-02T12:07:14.786Z,22.77
2019-05-02T12:09:44.260Z,20.80
2019-05-02T12:12:09.559Z,20.63
2019-05-02T12:14:36.531Z,21.77
2019-05-02T12:17:03.435Z,22.60
2019-05-02T12:19:32.119Z,22.23
2019-05-02T12:21:58.435Z,23.97
2019-05-02T12:24:24.804Z,22.77
2019-05-02T12:26:52.870Z,20.53
2019-05-02T12:29:34.600Z,20.73
2019-05-02T12:32:11.990Z,18.60
2019-05-02T12:34:38.705Z,20.50
2019-05-02T12:37:04.999Z,21.10
2019-05-02T12:39:31.733Z,18.47
2019-05-02T12:41:58.458Z,17.83
2019-05-02T12:44:25.071Z,17.60
2019-05-02T12:46:51.897Z,17.80
2019-05-02T12:49:25.378Z,18.20
2019-05-02T12:51:48.043Z,17.33
2019-05-02T12:54:14.330Z,17.27
2019-05-02T12:56:41.856Z,17.63
2019-05-02T12:59:08.747Z,17.47
2019-05-02T13:01:35.302Z,17.40
2019-05-02T13:04:03.802Z,17.00
2019-05-02T13:06:30.373Z,16.90
2019-05-02T13:08:58.572Z,15.27
2019-05-02T13:11:42.155Z,15.83
2019-05-02T13:14:16.930Z,16.03
2019-05-02T13:16:38.435Z,16.10
2019-05-02T13:19:06.285Z,19.17
2019-05-02T13:21:45.000Z,16.53
2019-05-02T13:24:29.170Z,16.23
2019-05-02T13:26:59.329Z,16.83
2019-05-02T13:29:22.583Z,17.70
2019-05-02T13:31:53.979Z,19.77
2019-05-02T13:34:22.521Z,18.53
2019-05-02T13:36:51.923Z,17.27
2019-05-02T13:39:23.595Z,16.70
2019-05-02T13:41:52.040Z,15.50
2019-05-02T13:44:23.560Z,15.00
2019-05-02T13:46:50.442Z,16.90
2019-05-02T13:49:16.844Z,17.00
2019-05-02T13:51:43.346Z,18.13
2019-05-02T13:54:09.722Z,18.33
2019-05-02T13:56:52.325Z,17.37
2019-05-02T13:59:18.584Z,16.90
2019-05-02T14:01:48.076Z,16.73
2019-05-02T14:04:15.190Z,16.50
2019-05-02T14:06:42.155Z,17.03
2019-05-02T14:09:25.307Z,16.40
2019-05-02T14:12:05.753Z,17.10
2019-05-02T14:14:32.634Z,16.47
2019-05-02T14:16:59.266Z,16.20
2019-05-02T14:19:25.549Z,17.30
2019-05-02T14:21:52.179Z,16.40
2019-05-02T14:24:23.051Z,15.43
2019-05-02T14:26:52.392Z,18.83
2019-05-02T14:29:19.110Z,16.93
2019-05-02T14:31:45.515Z,16.43
2019-05-02T14:34:28.937Z,16.33
2019-05-02T14:36:59.216Z,16.73
2019-05-02T14:39:24.194Z,15.40
2019-05-02T14:41:52.449Z,16.93
2019-05-02T14:44:23.315Z,16.37
2019-05-02T14:46:47.598Z,15.57
2019-05-02T14:49:16.669Z,13.93
2019-05-02T14:51:44.654Z,14.00
2019-05-02T14:54:12.061Z,15.23
2019-05-02T14:56:43.363Z,13.90
2019-05-02T14:59:13.727Z,13.07
2019-05-02T15:01:37.660Z,12.47
2019-05-02T15:04:08.131Z,12.80
2019-05-02T15:06:33.770Z,12.40
2019-05-02T15:09:02.375Z,12.07
2019-05-02T15:11:32.717Z,11.83
2019-05-02T15:13:58.598Z,11.47
2019-05-02T15:16:39.031Z,10.50
2019-05-02T15:18:56.881Z,9.93
2019-05-02T15:21:22.856Z,10.60
2019-05-02T15:23:54.447Z,10.80
2019-05-02T15:26:19.095Z,10.77
2019-05-02T15:28:45.741Z,11.03
2019-05-02T15:31:28.497Z,11.67
2019-05-02T15:34:05.359Z,10.57
2019-05-02T15:36:32.359Z,10.07
2019-05-02T15:41:27.487Z,9.83
2019-05-02T15:43:53.788Z,10.70
2019-05-02T15:46:23.843Z,10.40
2019-05-02T15:48:48.252Z,11.60
2019-05-02T15:51:15.066Z,11.33
2019-05-02T15:54:03.061Z,11.77
2019-05-02T15:56:23.716Z,10.60
2019-05-02T15:58:48.580Z,11.53
2019-05-02T16:01:36.791Z,10.70
2019-05-02T16:04:04.752Z,11.37
2019-05-02T16:06:33.823Z,11.63
2019-05-02T16:08:59.503Z,11.40
2019-05-02T16:11:26.171Z,10.60
2019-05-02T16:13:55.649Z,12.07
2019-05-02T16:16:21.965Z,12.13
2019-05-02T16:18:49.535Z,10.93
2019-05-02T16:21:22.655Z,11.13
2019-05-02T16:24:11.175Z,10.23
2019-05-02T16:26:37.146Z,10.87
2019-05-02T16:29:02.929Z,10.73
2019-05-02T16:31:32.518Z,10.47
2019-05-02T16:34:02.336Z,10.77
2019-05-02T16:36:33.815Z,9.83
2019-05-02T16:38:57.358Z,10.40
2019-05-02T16:41:24.023Z,10.07
2019-05-02T16:43:51.838Z,10.80
2019-05-02T16:46:18.487Z,9.07
2019-05-02T16:48:44.759Z,9.70
2019-05-02T16:51:27.556Z,8.80
2019-05-02T16:53:39.572Z,8.80
2019-05-02T16:56:07.222Z,8.97
2019-05-02T16:58:45.974Z,9.57
2019-05-02T17:01:12.249Z,9.00
2019-05-02T17:03:39.182Z,9.53
2019-05-02T17:06:05.967Z,9.30
2019-05-02T17:08:37.423Z,8.67
2019-05-02T17:11:06.047Z,9.07
2019-05-02T17:13:35.655Z,8.73
2019-05-02T17:16:06.937Z,9.20
2019-05-02T17:18:29.727Z,10.20
2019-05-02T17:20:57.012Z,10.60
2019-05-02T17:23:23.587Z,9.93
2019-05-02T17:25:49.980Z,9.33
2019-05-02T17:28:16.266Z,9.07
2019-05-02T17:30:43.131Z,12.13
2019-05-02T17:33:14.423Z,9.77
2019-05-02T17:35:57.800Z,10.80
2019-05-02T17:38:29.087Z,10.73
2019-05-02T17:40:54.363Z,10.50
2019-05-02T17:43:22.539Z,10.00
2019-05-02T17:45:48.948Z,9.17
2019-05-02T17:48:17.540Z,9.57
2019-05-02T17:50:54.337Z,9.77
2019-05-02T17:53:16.542Z,8.33
2019-05-02T17:55:44.408Z,7.87
2019-05-02T17:58:12.958Z,7.37
2019-05-02T18:00:47.510Z,6.77
2019-05-02T18:03:15.195Z,6.80
2019-05-02T18:05:41.885Z,7.03
2019-05-02T18:08:10.760Z,6.30
2019-05-02T18:10:37.199Z,6.60
2019-05-02T18:13:04.078Z,6.83
2019-05-02T18:15:34.791Z,7.13
2019-05-02T18:17:59.888Z,6.67
2019-05-02T18:20:27.438Z,6.63
2019-05-02T18:22:54.127Z,6.37
2019-05-02T18:25:21.636Z,6.27
2019-05-02T18:27:49.140Z,6.00
2019-05-02T18:30:22.847Z,6.63
2019-05-02T18:32:46.569Z,6.27
2019-05-02T18:35:13.299Z,6.77
2019-05-02T18:37:42.819Z,6.70
2019-05-02T18:40:08.362Z,6.53
2019-05-02T18:42:34.789Z,7.17
2019-05-02T18:45:05.231Z,8.13
2019-05-02T18:47:33.442Z,8.23
2019-05-02T18:50:04.378Z,8.20
2019-05-02T18:52:38.361Z,8.17
2019-05-02T18:54:58.774Z,7.53
2019-05-02T18:57:26.095Z,8.47
2019-05-02T18:59:56.454Z,8.73
2019-05-02T19:02:26.442Z,8.43
2019-05-02T19:04:51.653Z,9.07
2019-05-02T19:07:30.278Z,7.47
2019-05-02T19:09:50.991Z,8.97
2019-05-02T19:12:22.695Z,8.73
2019-05-02T19:14:43.229Z,8.93
2019-05-02T19:17:09.510Z,8.70
2019-05-02T19:19:36.943Z,9.63
2019-05-02T19:22:07.520Z,9.27
2019-05-02T19:24:34.877Z,9.73
2019-05-02T19:27:02.195Z,8.97
2019-05-02T19:29:31.648Z,10.03
2019-05-02T19:31:58.056Z,9.77
2019-05-02T19:34:26.833Z,8.50
2019-05-02T19:36:53.049Z,8.97
2019-05-02T19:39:19.645Z,8.70
2019-05-02T19:41:45.939Z,9.00
2019-05-02T19:44:15.110Z,9.10
2019-05-02T19:46:42.188Z,9.73
2019-05-02T19:49:12.438Z,10.30
2019-05-02T19:51:37.349Z,8.83
2019-05-02T19:54:06.958Z,8.80
2019-05-02T19:56:43.256Z,9.03
2019-05-02T19:59:02.686Z,9.40
2019-05-02T20:01:29.440Z,8.57
2019-05-02T20:03:56.751Z,8.70
2019-05-02T20:06:24.487Z,8.60
2019-05-02T20:08:52.535Z,8.13
2019-05-02T20:11:21.819Z,8.20
2019-05-02T20:13:47.919Z,8.03
2019-05-02T20:16:22.367Z,8.93
2019-05-02T20:18:48.610Z,11.43
2019-05-02T20:21:23.314Z,9.47
2019-05-02T20:23:45.542Z,8.87
2019-05-02T20:26:15.537Z,9.90
2019-05-02T20:28:42.150Z,8.77
2019-05-02T20:31:08.328Z,8.13
2019-05-02T20:33:34.686Z,8.77
2019-05-02T20:36:02.208Z,9.03
2019-05-02T20:38:28.573Z,9.10
2019-05-02T20:40:55.046Z,8.93
2019-05-02T20:43:22.605Z,8.50
2019-05-02T20:45:49.406Z,8.47
2019-05-02T20:48:15.903Z,8.73
2019-05-02T20:50:42.775Z,7.97
2019-05-02T20:53:12.019Z,8.57
2019-05-02T20:55:37.751Z,8.37
2019-05-02T20:58:04.522Z,8.33
2019-05-02T21:00:32.224Z,8.33
2019-05-02T21:02:58.895Z,7.97
2019-05-02T21:05:27.886Z,8.13
2019-05-02T21:08:02.166Z,9.53
2019-05-02T21:10:33.386Z,8.47
2019-05-02T21:13:01.951Z,8.10
2019-05-02T21:15:28.312Z,8.17
2019-05-02T21:17:54.803Z,7.80
2019-05-02T21:20:21.887Z,8.63
2019-05-02T21:22:48.728Z,9.33
2019-05-02T21:25:15.472Z,8.83
2019-05-02T21:27:41.980Z,9.43
2019-05-02T21:30:12.150Z,8.87
2019-05-02T21:32:38.711Z,8.80
2019-05-02T21:35:05.619Z,9.50
2019-05-02T21:37:32.051Z,10.07
2019-05-02T21:39:58.674Z,9.83
2019-05-02T21:42:25.042Z,9.97
2019-05-02T21:44:51.771Z,10.40
2019-05-02T21:47:18.369Z,11.63
2019-05-02T21:49:47.075Z,10.73
2019-05-02T21:52:32.143Z,11.97
2019-05-02T21:55:15.797Z,11.43
2019-05-02T21:58:02.698Z,10.67
2019-05-02T22:00:48.691Z,11.50
2019-05-02T22:03:15.375Z,14.30
2019-05-02T22:05:42.871Z,12.93
2019-05-02T22:08:09.438Z,12.87
2019-05-02T22:10:36.678Z,12.93
2019-05-02T22:13:03.149Z,12.80
2019-05-02T22:15:29.547Z,12.57
2019-05-02T22:17:55.837Z,14.13
2019-05-02T22:20:22.983Z,11.93
2019-05-02T22:22:49.375Z,13.57
2019-05-02T22:25:15.656Z,14.17
2019-05-02T22:27:42.218Z,13.90
2019-05-02T22:30:08.804Z,14.30
2019-05-02T22:32:35.070Z,14.13
2019-05-02T22:35:01.941Z,13.10
2019-05-02T22:37:28.331Z,13.30
2019-05-02T22:39:56.723Z,12.43
2019-05-02T22:42:23.191Z,11.77
2019-05-02T22:44:49.585Z,10.83
2019-05-02T22:47:15.858Z,10.77
2019-05-02T22:49:42.442Z,11.03
2019-05-02T22:52:08.962Z,10.83
2019-05-02T22:54:35.291Z,11.37
2019-05-02T22:57:02.548Z,11.53
2019-05-02T22:59:29.081Z,11.47
2019-05-02T23:01:56.438Z,10.93
2019-05-02T23:04:23.542Z,11.73
2019-05-02T23:06:52.731Z,10.90
2019-05-02T23:09:18.755Z,10.70
2019-05-02T23:11:45.142Z,10.47
2019-05-02T23:14:11.451Z,11.27
2019-05-02T23:16:38.003Z,9.40
2019-05-02T23:19:04.579Z,9.70
2019-05-02T23:21:32.593Z,9.53
2019-05-02T23:24:01.667Z,10.03
2019-05-02T23:26:47.238Z,9.30
2019-05-02T23:29:15.410Z,9.83
2019-05-02T23:31:42.288Z,9.37
2019-05-02T23:34:09.203Z,8.40
2019-05-02T23:36:35.844Z,7.30
2019-05-02T23:39:05.451Z,8.13
2019-05-02T23:41:32.916Z,7.10
2019-05-02T23:43:59.405Z,6.73
2019-05-02T23:46:25.818Z,7.43
2019-05-02T23:48:52.676Z,6.80
2019-05-02T23:51:19.203Z,6.60
2019-05-02T23:53:45.606Z,6.73
2019-05-02T23:56:13.145Z,5.43
2019-05-02T23:58:39.995Z,5.10
